Ellington Field
KEFD : now visible

Airfield :











YOU CAN JOIN US ON...

 
LOGIN :

Register | Disclaimer

   EN    FR    IT 

 









Legend :    VFR   Marginal VFR   IFR   Intensive IFR   Very Intensive IFR
Visi :
Ceiling :
>= 8 km
>= 3000ft
5 to 8 km
1000 to 3000 ft
1500m to 5 km
500 to 1000 ft
800 to 1500m
200 to 500 ft
< 800m
< 200 ft
Symbols :   Thunderstorms  Fog  Heavy snow  Heavy precipitations  Wind > 20 kt







- Airport Elevation : 32 ft


KEFD - Ellington Field

CURRENT METAR :
  • 191450Z 17006KT 10SM SCT025 SCT250 29/24 A3001

EXPIRED METARs :
  • 191250Z 17004KT 10SM FEW015 FEW250 26/24 A2999

TAF TAF KEFD
Valid from the 19 at 12:00 until the 20 at 18:00 UTC


191203Z 1912/2018 16009KT 9999 SCT015 BKN030 QNH2995INS
BECMG 1915/1916 16010G15KT 9999 FEW030 SCT250 QNH2991INS
BECMG 1918/1919 17012G18KT 9000 -SHRA BKN030 QNH2990INS
TEMPO 1921/2001 17015G20KT 8000 -TSRA BKN020CB
BECMG 2002/2003 18006KT 9999 NSW SCT015 BKN030 QNH2993INS
BECMG 2014/2015 16010G18KT 9999 FEW030 QNH2991INS TX34/1922Z TN25/2010Z
KZHU FIR / North America



MET'MAP, your aeronautical weather chart ! - Copyright ORBIFLY December 2007 - Disclaimer

ORBIFLY MET'MAP TEAM :

Programming & Development : Alexandra Zaïnal
Concept & Development : Baudouin d'Aumeries
Co-Development & Prog : Marc-Olivier Méhu
Technical & hardware support : Manuel Goepfert

Contact : metmap@orbifly.com




SOURCES & CREDITS :

   NOAA       Earth
Advisory